sensor_id;sensor_type;location;lat;lon;timestamp;pressure;altitude;pressure_sealevel;temperature
79488;BMP180;68949;53.176;18.088;2023-06-24T00:01:34;100756.80;;;
79488;BMP180;68949;53.176;18.088;2023-06-24T00:04:00;100764.20;;;
79488;BMP180;68949;53.176;18.088;2023-06-24T00:06:27;100766.20;;;
79488;BMP180;68949;53.176;18.088;2023-06-24T00:08:53;100768.80;;;
79488;BMP180;68949;53.176;18.088;2023-06-24T00:11:29;100766.80;;;
79488;BMP180;68949;53.176;18.088;2023-06-24T00:13:57;100770.80;;;
79488;BMP180;68949;53.176;18.088;2023-06-24T00:16:24;100772.20;;;
79488;BMP180;68949;53.176;18.088;2023-06-24T00:18:55;100773.60;;;
79488;BMP180;68949;53.176;18.088;2023-06-24T00:21:25;100775.80;;;
79488;BMP180;68949;53.176;18.088;2023-06-24T00:23:57;100772.40;;;
79488;BMP180;68949;53.176;18.088;2023-06-24T00:26:25;100773.20;;;
79488;BMP180;68949;53.176;18.088;2023-06-24T00:28:52;100775.40;;;
79488;BMP180;68949;53.176;18.088;2023-06-24T00:31:19;100783.00;;;
79488;BMP180;68949;53.176;18.088;2023-06-24T00:33:48;100785.80;;;
79488;BMP180;68949;53.176;18.088;2023-06-24T00:36:17;100782.40;;;
79488;BMP180;68949;53.176;18.088;2023-06-24T00:38:44;100785.80;;;
79488;BMP180;68949;53.176;18.088;2023-06-24T00:41:11;100787.00;;;
79488;BMP180;68949;53.176;18.088;2023-06-24T00:43:38;100785.80;;;
79488;BMP180;68949;53.176;18.088;2023-06-24T00:46:05;100794.60;;;
79488;BMP180;68949;53.176;18.088;2023-06-24T00:48:33;100796.60;;;
79488;BMP180;68949;53.176;18.088;2023-06-24T00:50:59;100799.40;;;
79488;BMP180;68949;53.176;18.088;2023-06-24T00:53:27;100798.40;;;
79488;BMP180;68949;53.176;18.088;2023-06-24T00:55:56;100793.80;;;
79488;BMP180;68949;53.176;18.088;2023-06-24T00:58:30;100799.00;;;
79488;BMP180;68949;53.176;18.088;2023-06-24T01:00:58;100799.60;;;
79488;BMP180;68949;53.176;18.088;2023-06-24T01:03:25;100805.60;;;
79488;BMP180;68949;53.176;18.088;2023-06-24T01:05:53;100804.80;;;
79488;BMP180;68949;53.176;18.088;2023-06-24T01:08:20;100806.00;;;
79488;BMP180;68949;53.176;18.088;2023-06-24T01:10:50;100807.40;;;
79488;BMP180;68949;53.176;18.088;2023-06-24T01:13:20;100805.80;;;
79488;BMP180;68949;53.176;18.088;2023-06-24T01:15:49;100800.00;;;
79488;BMP180;68949;53.176;18.088;2023-06-24T01:18:31;100807.60;;;
79488;BMP180;68949;53.176;18.088;2023-06-24T01:21:04;100813.00;;;
79488;BMP180;68949;53.176;18.088;2023-06-24T01:24:05;100811.80;;;
79488;BMP180;68949;53.176;18.088;2023-06-24T01:30:13;100816.60;;;
79488;BMP180;68949;53.176;18.088;2023-06-24T01:32:54;100820.80;;;
79488;BMP180;68949;53.176;18.088;2023-06-24T01:35:33;100820.00;;;
79488;BMP180;68949;53.176;18.088;2023-06-24T01:38:22;100815.40;;;
79488;BMP180;68949;53.176;18.088;2023-06-24T01:40:52;100811.60;;;
79488;BMP180;68949;53.176;18.088;2023-06-24T01:43:22;100812.40;;;
79488;BMP180;68949;53.176;18.088;2023-06-24T01:45:52;100819.80;;;
79488;BMP180;68949;53.176;18.088;2023-06-24T01:48:34;100825.20;;;
79488;BMP180;68949;53.176;18.088;2023-06-24T01:51:14;100827.00;;;
79488;BMP180;68949;53.176;18.088;2023-06-24T01:53:48;100831.60;;;
79488;BMP180;68949;53.176;18.088;2023-06-24T01:56:16;100836.00;;;
79488;BMP180;68949;53.176;18.088;2023-06-24T01:58:46;100838.80;;;
79488;BMP180;68949;53.176;18.088;2023-06-24T02:01:15;100844.40;;;
79488;BMP180;68949;53.176;18.088;2023-06-24T02:03:42;100837.60;;;
79488;BMP180;68949;53.176;18.088;2023-06-24T02:06:12;100842.80;;;
79488;BMP180;68949;53.176;18.088;2023-06-24T02:08:41;100841.00;;;
79488;BMP180;68949;53.176;18.088;2023-06-24T02:11:12;100836.00;;;
79488;BMP180;68949;53.176;18.088;2023-06-24T02:13:42;100834.40;;;
79488;BMP180;68949;53.176;18.088;2023-06-24T02:16:16;100835.20;;;
79488;BMP180;68949;53.176;18.088;2023-06-24T02:18:44;100841.60;;;
79488;BMP180;68949;53.176;18.088;2023-06-24T02:21:12;100847.00;;;
79488;BMP180;68949;53.176;18.088;2023-06-24T02:23:39;100846.60;;;
79488;BMP180;68949;53.176;18.088;2023-06-24T02:26:07;100847.20;;;
79488;BMP180;68949;53.176;18.088;2023-06-24T02:28:36;100848.20;;;
79488;BMP180;68949;53.176;18.088;2023-06-24T02:31:05;100851.00;;;
79488;BMP180;68949;53.176;18.088;2023-06-24T02:33:32;100852.80;;;
79488;BMP180;68949;53.176;18.088;2023-06-24T02:35:59;100849.00;;;
79488;BMP180;68949;53.176;18.088;2023-06-24T02:38:26;100849.80;;;
79488;BMP180;68949;53.176;18.088;2023-06-24T02:40:52;100850.20;;;
79488;BMP180;68949;53.176;18.088;2023-06-24T02:43:19;100856.00;;;
79488;BMP180;68949;53.176;18.088;2023-06-24T02:45:47;100855.60;;;
79488;BMP180;68949;53.176;18.088;2023-06-24T02:48:17;100856.80;;;
79488;BMP180;68949;53.176;18.088;2023-06-24T02:50:46;100860.60;;;
79488;BMP180;68949;53.176;18.088;2023-06-24T02:53:14;100865.00;;;
79488;BMP180;68949;53.176;18.088;2023-06-24T02:55:42;100868.40;;;
79488;BMP180;68949;53.176;18.088;2023-06-24T02:58:10;100865.80;;;
79488;BMP180;68949;53.176;18.088;2023-06-24T03:00:49;100870.60;;;
79488;BMP180;68949;53.176;18.088;2023-06-24T03:03:30;100866.00;;;
79488;BMP180;68949;53.176;18.088;2023-06-24T03:05:58;100870.00;;;
79488;BMP180;68949;53.176;18.088;2023-06-24T03:08:26;100868.80;;;
79488;BMP180;68949;53.176;18.088;2023-06-24T03:10:58;100873.40;;;
79488;BMP180;68949;53.176;18.088;2023-06-24T03:13:26;100876.20;;;
79488;BMP180;68949;53.176;18.088;2023-06-24T03:15:58;100883.20;;;
79488;BMP180;68949;53.176;18.088;2023-06-24T03:18:25;100885.40;;;
79488;BMP180;68949;53.176;18.088;2023-06-24T03:20:53;100890.40;;;
79488;BMP180;68949;53.176;18.088;2023-06-24T03:23:22;100888.40;;;
79488;BMP180;68949;53.176;18.088;2023-06-24T03:25:49;100892.20;;;
79488;BMP180;68949;53.176;18.088;2023-06-24T03:28:16;100898.40;;;
79488;BMP180;68949;53.176;18.088;2023-06-24T03:30:47;100893.80;;;
79488;BMP180;68949;53.176;18.088;2023-06-24T03:33:17;100894.60;;;
79488;BMP180;68949;53.176;18.088;2023-06-24T03:35:44;100893.40;;;
79488;BMP180;68949;53.176;18.088;2023-06-24T03:38:12;100904.40;;;
79488;BMP180;68949;53.176;18.088;2023-06-24T03:40:39;100912.80;;;
79488;BMP180;68949;53.176;18.088;2023-06-24T03:43:06;100909.20;;;
79488;BMP180;68949;53.176;18.088;2023-06-24T03:45:33;100915.60;;;
79488;BMP180;68949;53.176;18.088;2023-06-24T03:48:00;100915.60;;;
79488;BMP180;68949;53.176;18.088;2023-06-24T03:50:28;100922.60;;;
79488;BMP180;68949;53.176;18.088;2023-06-24T03:52:54;100930.80;;;
79488;BMP180;68949;53.176;18.088;2023-06-24T03:55:22;100941.80;;;
79488;BMP180;68949;53.176;18.088;2023-06-24T03:57:48;100946.40;;;
79488;BMP180;68949;53.176;18.088;2023-06-24T04:00:15;100948.00;;;
79488;BMP180;68949;53.176;18.088;2023-06-24T04:02:45;100955.80;;;
79488;BMP180;68949;53.176;18.088;2023-06-24T04:05:12;100957.40;;;
79488;BMP180;68949;53.176;18.088;2023-06-24T04:07:39;100966.00;;;
79488;BMP180;68949;53.176;18.088;2023-06-24T04:10:06;100969.20;;;
79488;BMP180;68949;53.176;18.088;2023-06-24T04:12:38;100975.60;;;
79488;BMP180;68949;53.176;18.088;2023-06-24T04:15:05;100977.20;;;
79488;BMP180;68949;53.176;18.088;2023-06-24T04:17:33;100973.60;;;
79488;BMP180;68949;53.176;18.088;2023-06-24T04:20:00;100982.40;;;
79488;BMP180;68949;53.176;18.088;2023-06-24T04:22:26;100988.20;;;
79488;BMP180;68949;53.176;18.088;2023-06-24T04:24:57;100988.40;;;
79488;BMP180;68949;53.176;18.088;2023-06-24T04:27:24;100981.80;;;
79488;BMP180;68949;53.176;18.088;2023-06-24T04:29:50;100980.20;;;
79488;BMP180;68949;53.176;18.088;2023-06-24T04:32:17;100983.60;;;
79488;BMP180;68949;53.176;18.088;2023-06-24T04:34:44;100985.20;;;
79488;BMP180;68949;53.176;18.088;2023-06-24T04:37:11;100982.00;;;
79488;BMP180;68949;53.176;18.088;2023-06-24T04:39:38;100979.60;;;
79488;BMP180;68949;53.176;18.088;2023-06-24T04:42:05;100975.40;;;
79488;BMP180;68949;53.176;18.088;2023-06-24T04:44:32;100967.80;;;
79488;BMP180;68949;53.176;18.088;2023-06-24T04:46:59;100964.20;;;
79488;BMP180;68949;53.176;18.088;2023-06-24T04:49:25;100965.40;;;
79488;BMP180;68949;53.176;18.088;2023-06-24T04:51:52;100961.40;;;
79488;BMP180;68949;53.176;18.088;2023-06-24T04:54:19;100967.20;;;
79488;BMP180;68949;53.176;18.088;2023-06-24T04:56:45;100957.60;;;
79488;BMP180;68949;53.176;18.088;2023-06-24T04:59:14;100957.40;;;
79488;BMP180;68949;53.176;18.088;2023-06-24T05:01:41;100954.40;;;
79488;BMP180;68949;53.176;18.088;2023-06-24T05:04:08;100953.20;;;
79488;BMP180;68949;53.176;18.088;2023-06-24T05:06:34;100955.20;;;
79488;BMP180;68949;53.176;18.088;2023-06-24T05:09:01;100954.20;;;
79488;BMP180;68949;53.176;18.088;2023-06-24T05:11:28;100947.20;;;
79488;BMP180;68949;53.176;18.088;2023-06-24T05:13:55;100948.20;;;
79488;BMP180;68949;53.176;18.088;2023-06-24T05:16:22;100937.40;;;
79488;BMP180;68949;53.176;18.088;2023-06-24T05:18:50;100937.60;;;
79488;BMP180;68949;53.176;18.088;2023-06-24T05:21:17;100944.40;;;
79488;BMP180;68949;53.176;18.088;2023-06-24T05:23:43;100941.80;;;
79488;BMP180;68949;53.176;18.088;2023-06-24T05:26:10;100941.40;;;
79488;BMP180;68949;53.176;18.088;2023-06-24T05:28:38;100947.80;;;
79488;BMP180;68949;53.176;18.088;2023-06-24T05:31:05;100945.40;;;
79488;BMP180;68949;53.176;18.088;2023-06-24T05:33:32;100942.00;;;
79488;BMP180;68949;53.176;18.088;2023-06-24T05:35:58;100937.20;;;
79488;BMP180;68949;53.176;18.088;2023-06-24T05:38:25;100928.00;;;
79488;BMP180;68949;53.176;18.088;2023-06-24T05:40:51;100906.00;;;
79488;BMP180;68949;53.176;18.088;2023-06-24T05:43:18;100912.80;;;
79488;BMP180;68949;53.176;18.088;2023-06-24T05:45:45;100900.00;;;
79488;BMP180;68949;53.176;18.088;2023-06-24T05:48:12;100904.40;;;
79488;BMP180;68949;53.176;18.088;2023-06-24T05:50:38;100921.20;;;
79488;BMP180;68949;53.176;18.088;2023-06-24T05:53:05;100887.60;;;
79488;BMP180;68949;53.176;18.088;2023-06-24T05:55:31;100904.20;;;
79488;BMP180;68949;53.176;18.088;2023-06-24T05:57:58;100919.80;;;
79488;BMP180;68949;53.176;18.088;2023-06-24T06:00:25;100908.20;;;
79488;BMP180;68949;53.176;18.088;2023-06-24T06:02:51;100894.40;;;
79488;BMP180;68949;53.176;18.088;2023-06-24T06:05:18;100906.80;;;
79488;BMP180;68949;53.176;18.088;2023-06-24T06:07:45;100905.80;;;
79488;BMP180;68949;53.176;18.088;2023-06-24T06:10:11;100906.00;;;
79488;BMP180;68949;53.176;18.088;2023-06-24T06:12:42;100919.60;;;
79488;BMP180;68949;53.176;18.088;2023-06-24T06:15:10;100920.20;;;
79488;BMP180;68949;53.176;18.088;2023-06-24T06:17:36;100910.00;;;
79488;BMP180;68949;53.176;18.088;2023-06-24T06:20:04;100913.80;;;
79488;BMP180;68949;53.176;18.088;2023-06-24T06:22:31;100901.60;;;
79488;BMP180;68949;53.176;18.088;2023-06-24T06:25:05;100901.80;;;
79488;BMP180;68949;53.176;18.088;2023-06-24T06:27:33;100907.80;;;
79488;BMP180;68949;53.176;18.088;2023-06-24T06:30:00;100919.60;;;
79488;BMP180;68949;53.176;18.088;2023-06-24T06:32:27;100914.40;;;
79488;BMP180;68949;53.176;18.088;2023-06-24T06:34:53;100911.00;;;
79488;BMP180;68949;53.176;18.088;2023-06-24T06:37:20;100914.20;;;
79488;BMP180;68949;53.176;18.088;2023-06-24T06:39:47;100902.80;;;
79488;BMP180;68949;53.176;18.088;2023-06-24T06:42:13;100893.80;;;
79488;BMP180;68949;53.176;18.088;2023-06-24T06:44:41;100900.80;;;
79488;BMP180;68949;53.176;18.088;2023-06-24T06:47:07;100906.20;;;
79488;BMP180;68949;53.176;18.088;2023-06-24T06:49:34;100910.00;;;
79488;BMP180;68949;53.176;18.088;2023-06-24T06:52:01;100905.80;;;
79488;BMP180;68949;53.176;18.088;2023-06-24T06:54:27;100888.20;;;
79488;BMP180;68949;53.176;18.088;2023-06-24T06:56:54;100896.40;;;
79488;BMP180;68949;53.176;18.088;2023-06-24T06:59:22;100885.00;;;
79488;BMP180;68949;53.176;18.088;2023-06-24T07:01:48;100872.20;;;
79488;BMP180;68949;53.176;18.088;2023-06-24T07:04:15;100869.40;;;
79488;BMP180;68949;53.176;18.088;2023-06-24T07:06:42;100854.20;;;
79488;BMP180;68949;53.176;18.088;2023-06-24T07:09:08;100842.20;;;
79488;BMP180;68949;53.176;18.088;2023-06-24T07:11:36;100849.60;;;
79488;BMP180;68949;53.176;18.088;2023-06-24T07:14:02;100851.40;;;
79488;BMP180;68949;53.176;18.088;2023-06-24T07:16:29;100860.00;;;
79488;BMP180;68949;53.176;18.088;2023-06-24T07:18:56;100834.40;;;
79488;BMP180;68949;53.176;18.088;2023-06-24T07:21:22;100806.20;;;
79488;BMP180;68949;53.176;18.088;2023-06-24T07:23:49;100822.00;;;
79488;BMP180;68949;53.176;18.088;2023-06-24T07:26:16;100818.40;;;
79488;BMP180;68949;53.176;18.088;2023-06-24T07:28:42;100821.20;;;
79488;BMP180;68949;53.176;18.088;2023-06-24T07:31:09;100818.20;;;
79488;BMP180;68949;53.176;18.088;2023-06-24T07:33:36;100854.60;;;
79488;BMP180;68949;53.176;18.088;2023-06-24T07:36:03;100863.40;;;
79488;BMP180;68949;53.176;18.088;2023-06-24T07:38:30;100859.20;;;
79488;BMP180;68949;53.176;18.088;2023-06-24T07:40:56;100863.00;;;
79488;BMP180;68949;53.176;18.088;2023-06-24T07:43:23;100854.00;;;
79488;BMP180;68949;53.176;18.088;2023-06-24T07:45:50;100851.40;;;
79488;BMP180;68949;53.176;18.088;2023-06-24T07:48:16;100850.00;;;
79488;BMP180;68949;53.176;18.088;2023-06-24T07:50:43;100855.40;;;
79488;BMP180;68949;53.176;18.088;2023-06-24T07:53:09;100839.60;;;
79488;BMP180;68949;53.176;18.088;2023-06-24T07:55:36;100855.60;;;
79488;BMP180;68949;53.176;18.088;2023-06-24T07:58:03;100854.20;;;
79488;BMP180;68949;53.176;18.088;2023-06-24T08:00:29;100852.60;;;
79488;BMP180;68949;53.176;18.088;2023-06-24T08:02:59;100857.80;;;
79488;BMP180;68949;53.176;18.088;2023-06-24T08:05:26;100857.80;;;
79488;BMP180;68949;53.176;18.088;2023-06-24T08:07:53;100870.40;;;
79488;BMP180;68949;53.176;18.088;2023-06-24T08:10:20;100828.40;;;
79488;BMP180;68949;53.176;18.088;2023-06-24T08:12:46;100838.40;;;
79488;BMP180;68949;53.176;18.088;2023-06-24T08:15:13;100853.00;;;
79488;BMP180;68949;53.176;18.088;2023-06-24T08:17:40;100875.60;;;
79488;BMP180;68949;53.176;18.088;2023-06-24T08:20:07;100884.00;;;
79488;BMP180;68949;53.176;18.088;2023-06-24T08:22:34;100876.80;;;
79488;BMP180;68949;53.176;18.088;2023-06-24T08:25:00;100874.40;;;
79488;BMP180;68949;53.176;18.088;2023-06-24T08:27:27;100866.80;;;
79488;BMP180;68949;53.176;18.088;2023-06-24T08:29:54;100878.60;;;
79488;BMP180;68949;53.176;18.088;2023-06-24T08:32:20;100884.40;;;
79488;BMP180;68949;53.176;18.088;2023-06-24T08:34:47;100889.20;;;
79488;BMP180;68949;53.176;18.088;2023-06-24T08:37:14;100886.00;;;
79488;BMP180;68949;53.176;18.088;2023-06-24T08:39:40;100885.60;;;
79488;BMP180;68949;53.176;18.088;2023-06-24T08:42:07;100883.00;;;
79488;BMP180;68949;53.176;18.088;2023-06-24T08:44:34;100881.80;;;
79488;BMP180;68949;53.176;18.088;2023-06-24T08:47:00;100896.60;;;
79488;BMP180;68949;53.176;18.088;2023-06-24T08:49:30;100887.20;;;
79488;BMP180;68949;53.176;18.088;2023-06-24T08:52:11;100890.60;;;
79488;BMP180;68949;53.176;18.088;2023-06-24T08:54:42;100885.60;;;
79488;BMP180;68949;53.176;18.088;2023-06-24T08:57:12;100884.80;;;
79488;BMP180;68949;53.176;18.088;2023-06-24T08:59:42;100870.60;;;
79488;BMP180;68949;53.176;18.088;2023-06-24T09:02:09;100857.40;;;
79488;BMP180;68949;53.176;18.088;2023-06-24T09:04:37;100886.80;;;
79488;BMP180;68949;53.176;18.088;2023-06-24T09:07:04;100880.60;;;
79488;BMP180;68949;53.176;18.088;2023-06-24T09:09:30;100861.60;;;
79488;BMP180;68949;53.176;18.088;2023-06-24T09:12:00;100897.40;;;
79488;BMP180;68949;53.176;18.088;2023-06-24T09:14:29;100898.80;;;
79488;BMP180;68949;53.176;18.088;2023-06-24T09:17:00;100874.20;;;
79488;BMP180;68949;53.176;18.088;2023-06-24T09:19:30;100885.80;;;
79488;BMP180;68949;53.176;18.088;2023-06-24T09:22:05;100886.20;;;
79488;BMP180;68949;53.176;18.088;2023-06-24T09:24:37;100896.60;;;
79488;BMP180;68949;53.176;18.088;2023-06-24T09:27:05;100881.20;;;
79488;BMP180;68949;53.176;18.088;2023-06-24T09:29:34;100881.00;;;
79488;BMP180;68949;53.176;18.088;2023-06-24T09:32:05;100887.00;;;
79488;BMP180;68949;53.176;18.088;2023-06-24T09:34:33;100878.60;;;
79488;BMP180;68949;53.176;18.088;2023-06-24T09:37:01;100877.20;;;
79488;BMP180;68949;53.176;18.088;2023-06-24T09:39:35;100878.00;;;
79488;BMP180;68949;53.176;18.088;2023-06-24T09:42:04;100877.40;;;
79488;BMP180;68949;53.176;18.088;2023-06-24T09:44:31;100876.20;;;
79488;BMP180;68949;53.176;18.088;2023-06-24T09:46:58;100888.40;;;
79488;BMP180;68949;53.176;18.088;2023-06-24T09:49:25;100895.40;;;
79488;BMP180;68949;53.176;18.088;2023-06-24T09:51:58;100898.40;;;
79488;BMP180;68949;53.176;18.088;2023-06-24T09:54:28;100893.00;;;
79488;BMP180;68949;53.176;18.088;2023-06-24T09:57:01;100894.20;;;
79488;BMP180;68949;53.176;18.088;2023-06-24T09:59:30;100897.40;;;
79488;BMP180;68949;53.176;18.088;2023-06-24T10:02:00;100886.80;;;
79488;BMP180;68949;53.176;18.088;2023-06-24T10:04:27;100884.80;;;
79488;BMP180;68949;53.176;18.088;2023-06-24T10:06:55;100860.60;;;
79488;BMP180;68949;53.176;18.088;2023-06-24T10:09:22;100878.00;;;
79488;BMP180;68949;53.176;18.088;2023-06-24T10:11:49;100853.80;;;
79488;BMP180;68949;53.176;18.088;2023-06-24T10:14:16;100868.40;;;
79488;BMP180;68949;53.176;18.088;2023-06-24T10:16:44;100883.80;;;
79488;BMP180;68949;53.176;18.088;2023-06-24T10:19:19;100884.60;;;
79488;BMP180;68949;53.176;18.088;2023-06-24T10:21:54;100884.00;;;
79488;BMP180;68949;53.176;18.088;2023-06-24T10:24:39;100863.20;;;
79488;BMP180;68949;53.176;18.088;2023-06-24T10:29:45;100855.60;;;
79488;BMP180;68949;53.176;18.088;2023-06-24T10:32:13;100871.20;;;
79488;BMP180;68949;53.176;18.088;2023-06-24T10:47:47;100826.20;;;
79488;BMP180;68949;53.176;18.088;2023-06-24T10:50:18;100828.80;;;
79488;BMP180;68949;53.176;18.088;2023-06-24T10:52:48;100822.20;;;
79488;BMP180;68949;53.176;18.088;2023-06-24T10:55:16;100836.40;;;
79488;BMP180;68949;53.176;18.088;2023-06-24T10:57:45;100844.60;;;
79488;BMP180;68949;53.176;18.088;2023-06-24T11:00:14;100805.80;;;
79488;BMP180;68949;53.176;18.088;2023-06-24T11:02:42;100822.00;;;
79488;BMP180;68949;53.176;18.088;2023-06-24T11:05:09;100805.00;;;
79488;BMP180;68949;53.176;18.088;2023-06-24T11:07:38;100829.00;;;
79488;BMP180;68949;53.176;18.088;2023-06-24T11:10:14;100806.60;;;
79488;BMP180;68949;53.176;18.088;2023-06-24T11:12:43;100800.20;;;
79488;BMP180;68949;53.176;18.088;2023-06-24T11:15:12;100805.60;;;
79488;BMP180;68949;53.176;18.088;2023-06-24T11:17:40;100815.80;;;
79488;BMP180;68949;53.176;18.088;2023-06-24T11:20:10;100814.60;;;
79488;BMP180;68949;53.176;18.088;2023-06-24T11:22:40;100823.80;;;
79488;BMP180;68949;53.176;18.088;2023-06-24T11:25:17;100808.00;;;
79488;BMP180;68949;53.176;18.088;2023-06-24T11:27:45;100785.00;;;
79488;BMP180;68949;53.176;18.088;2023-06-24T11:30:13;100810.60;;;
79488;BMP180;68949;53.176;18.088;2023-06-24T11:32:45;100802.60;;;
79488;BMP180;68949;53.176;18.088;2023-06-24T11:35:13;100818.20;;;
79488;BMP180;68949;53.176;18.088;2023-06-24T11:37:44;100815.40;;;
79488;BMP180;68949;53.176;18.088;2023-06-24T11:40:13;100813.80;;;
79488;BMP180;68949;53.176;18.088;2023-06-24T11:42:42;100834.20;;;
79488;BMP180;68949;53.176;18.088;2023-06-24T11:45:13;100816.80;;;
79488;BMP180;68949;53.176;18.088;2023-06-24T11:47:41;100819.40;;;
79488;BMP180;68949;53.176;18.088;2023-06-24T11:50:09;100820.80;;;
79488;BMP180;68949;53.176;18.088;2023-06-24T11:52:49;100823.40;;;
79488;BMP180;68949;53.176;18.088;2023-06-24T11:55:25;100832.80;;;
79488;BMP180;68949;53.176;18.088;2023-06-24T11:57:58;100836.80;;;
79488;BMP180;68949;53.176;18.088;2023-06-24T12:00:32;100797.80;;;
79488;BMP180;68949;53.176;18.088;2023-06-24T12:03:03;100787.20;;;
79488;BMP180;68949;53.176;18.088;2023-06-24T12:05:32;100783.20;;;
79488;BMP180;68949;53.176;18.088;2023-06-24T12:08:09;100791.20;;;
79488;BMP180;68949;53.176;18.088;2023-06-24T12:10:38;100804.20;;;
79488;BMP180;68949;53.176;18.088;2023-06-24T12:13:06;100837.60;;;
79488;BMP180;68949;53.176;18.088;2023-06-24T12:15:35;100817.80;;;
79488;BMP180;68949;53.176;18.088;2023-06-24T12:18:02;100830.40;;;
79488;BMP180;68949;53.176;18.088;2023-06-24T12:20:31;100830.40;;;
79488;BMP180;68949;53.176;18.088;2023-06-24T12:22:58;100818.40;;;
79488;BMP180;68949;53.176;18.088;2023-06-24T12:25:25;100799.20;;;
79488;BMP180;68949;53.176;18.088;2023-06-24T12:27:52;100795.80;;;
79488;BMP180;68949;53.176;18.088;2023-06-24T12:30:18;100808.20;;;
79488;BMP180;68949;53.176;18.088;2023-06-24T12:32:46;100809.20;;;
79488;BMP180;68949;53.176;18.088;2023-06-24T12:35:13;100783.80;;;
79488;BMP180;68949;53.176;18.088;2023-06-24T12:37:39;100792.00;;;
79488;BMP180;68949;53.176;18.088;2023-06-24T12:40:07;100792.40;;;
79488;BMP180;68949;53.176;18.088;2023-06-24T12:42:34;100777.60;;;
79488;BMP180;68949;53.176;18.088;2023-06-24T12:45:01;100793.40;;;
79488;BMP180;68949;53.176;18.088;2023-06-24T12:47:28;100786.80;;;
79488;BMP180;68949;53.176;18.088;2023-06-24T12:49:55;100781.80;;;
79488;BMP180;68949;53.176;18.088;2023-06-24T12:52:22;100792.40;;;
79488;BMP180;68949;53.176;18.088;2023-06-24T12:54:48;100796.40;;;
79488;BMP180;68949;53.176;18.088;2023-06-24T12:57:15;100787.00;;;
79488;BMP180;68949;53.176;18.088;2023-06-24T12:59:42;100790.20;;;
79488;BMP180;68949;53.176;18.088;2023-06-24T13:02:09;100791.80;;;
79488;BMP180;68949;53.176;18.088;2023-06-24T13:04:36;100796.60;;;
79488;BMP180;68949;53.176;18.088;2023-06-24T13:07:03;100809.00;;;
79488;BMP180;68949;53.176;18.088;2023-06-24T13:09:29;100813.20;;;
79488;BMP180;68949;53.176;18.088;2023-06-24T13:11:56;100795.80;;;
79488;BMP180;68949;53.176;18.088;2023-06-24T13:14:23;100780.20;;;
79488;BMP180;68949;53.176;18.088;2023-06-24T13:16:52;100790.60;;;
79488;BMP180;68949;53.176;18.088;2023-06-24T13:19:18;100792.00;;;
79488;BMP180;68949;53.176;18.088;2023-06-24T13:21:46;100779.40;;;
79488;BMP180;68949;53.176;18.088;2023-06-24T13:24:13;100797.40;;;
79488;BMP180;68949;53.176;18.088;2023-06-24T13:26:40;100795.80;;;
79488;BMP180;68949;53.176;18.088;2023-06-24T13:29:06;100804.20;;;
79488;BMP180;68949;53.176;18.088;2023-06-24T13:31:34;100813.60;;;
79488;BMP180;68949;53.176;18.088;2023-06-24T13:34:01;100805.80;;;
79488;BMP180;68949;53.176;18.088;2023-06-24T13:36:33;100805.20;;;
79488;BMP180;68949;53.176;18.088;2023-06-24T13:39:07;100810.40;;;
79488;BMP180;68949;53.176;18.088;2023-06-24T13:41:35;100813.00;;;
79488;BMP180;68949;53.176;18.088;2023-06-24T13:44:03;100820.40;;;
79488;BMP180;68949;53.176;18.088;2023-06-24T13:46:31;100826.80;;;
79488;BMP180;68949;53.176;18.088;2023-06-24T13:48:58;100822.80;;;
79488;BMP180;68949;53.176;18.088;2023-06-24T13:51:25;100830.80;;;
79488;BMP180;68949;53.176;18.088;2023-06-24T13:53:54;100817.80;;;
79488;BMP180;68949;53.176;18.088;2023-06-24T13:56:23;100821.00;;;
79488;BMP180;68949;53.176;18.088;2023-06-24T13:58:52;100831.00;;;
79488;BMP180;68949;53.176;18.088;2023-06-24T14:01:20;100813.80;;;
79488;BMP180;68949;53.176;18.088;2023-06-24T14:03:48;100817.20;;;
79488;BMP180;68949;53.176;18.088;2023-06-24T14:06:19;100819.20;;;
79488;BMP180;68949;53.176;18.088;2023-06-24T14:08:46;100804.20;;;
79488;BMP180;68949;53.176;18.088;2023-06-24T14:11:13;100810.80;;;
79488;BMP180;68949;53.176;18.088;2023-06-24T14:13:41;100806.40;;;
79488;BMP180;68949;53.176;18.088;2023-06-24T14:16:09;100801.40;;;
79488;BMP180;68949;53.176;18.088;2023-06-24T14:18:38;100817.40;;;
79488;BMP180;68949;53.176;18.088;2023-06-24T14:21:06;100801.80;;;
79488;BMP180;68949;53.176;18.088;2023-06-24T14:23:33;100803.40;;;
79488;BMP180;68949;53.176;18.088;2023-06-24T14:26:02;100808.00;;;
79488;BMP180;68949;53.176;18.088;2023-06-24T14:28:29;100791.20;;;
79488;BMP180;68949;53.176;18.088;2023-06-24T14:30:56;100787.60;;;
79488;BMP180;68949;53.176;18.088;2023-06-24T14:33:23;100795.00;;;
79488;BMP180;68949;53.176;18.088;2023-06-24T14:35:50;100789.60;;;
79488;BMP180;68949;53.176;18.088;2023-06-24T14:38:18;100791.60;;;
79488;BMP180;68949;53.176;18.088;2023-06-24T14:40:46;100791.20;;;
79488;BMP180;68949;53.176;18.088;2023-06-24T14:43:13;100797.20;;;
79488;BMP180;68949;53.176;18.088;2023-06-24T14:45:40;100784.40;;;
79488;BMP180;68949;53.176;18.088;2023-06-24T14:48:07;100792.20;;;
79488;BMP180;68949;53.176;18.088;2023-06-24T14:50:34;100783.60;;;
79488;BMP180;68949;53.176;18.088;2023-06-24T14:53:02;100798.80;;;
79488;BMP180;68949;53.176;18.088;2023-06-24T14:55:29;100794.60;;;
79488;BMP180;68949;53.176;18.088;2023-06-24T14:57:57;100780.60;;;
79488;BMP180;68949;53.176;18.088;2023-06-24T15:00:24;100784.20;;;
79488;BMP180;68949;53.176;18.088;2023-06-24T15:02:50;100767.20;;;
79488;BMP180;68949;53.176;18.088;2023-06-24T15:05:17;100787.80;;;
79488;BMP180;68949;53.176;18.088;2023-06-24T15:07:44;100769.00;;;
79488;BMP180;68949;53.176;18.088;2023-06-24T15:10:10;100768.00;;;
79488;BMP180;68949;53.176;18.088;2023-06-24T15:12:37;100757.00;;;
79488;BMP180;68949;53.176;18.088;2023-06-24T15:15:06;100772.80;;;